createdAt,value
2018-09-14T00:01:49.262Z,70.70
2018-09-14T00:04:16.660Z,71.10
2018-09-14T00:06:44.048Z,70.80
2018-09-14T00:09:12.579Z,71.20
2018-09-14T00:11:39.993Z,71.20
2018-09-14T00:14:07.673Z,71.50
2018-09-14T00:16:35.448Z,70.70
2018-09-14T00:19:02.840Z,71.00
2018-09-14T00:21:30.240Z,71.50
2018-09-14T00:23:57.647Z,71.60
2018-09-14T00:26:25.054Z,71.50
2018-09-14T00:28:52.460Z,71.00
2018-09-14T00:31:19.849Z,71.10
2018-09-14T00:33:47.474Z,71.50
2018-09-14T00:36:14.863Z,71.20
2018-09-14T00:38:42.293Z,71.70
2018-09-14T00:41:09.681Z,71.40
2018-09-14T00:43:37.110Z,71.60
2018-09-14T00:46:04.576Z,71.50
2018-09-14T00:48:31.960Z,71.20
2018-09-14T00:50:59.362Z,71.90
2018-09-14T00:53:26.779Z,71.40
2018-09-14T00:55:54.246Z,71.20
2018-09-14T00:58:21.627Z,71.30
2018-09-14T01:00:49.042Z,71.40
2018-09-14T01:03:16.476Z,71.40
2018-09-14T01:05:43.858Z,71.20
2018-09-14T01:08:11.227Z,71.90
2018-09-14T01:10:38.633Z,71.50
2018-09-14T01:13:06.066Z,71.30
2018-09-14T01:15:33.459Z,71.30
2018-09-14T01:18:00.844Z,71.80
2018-09-14T01:20:29.121Z,70.80
2018-09-14T01:22:56.479Z,71.20
2018-09-14T01:25:23.891Z,71.30
2018-09-14T01:27:51.290Z,70.90
2018-09-14T01:30:18.756Z,71.50
2018-09-14T01:32:46.156Z,70.60
2018-09-14T01:35:19.242Z,71.20
2018-09-14T01:37:46.623Z,71.50
2018-09-14T01:40:14.006Z,71.10
2018-09-14T01:42:41.440Z,70.90
2018-09-14T01:45:08.828Z,71.20
2018-09-14T01:47:36.258Z,71.40
2018-09-14T01:50:03.896Z,71.60
2018-09-14T01:52:31.292Z,71.70
2018-09-14T01:54:58.700Z,71.60
2018-09-14T01:57:26.079Z,72.40
2018-09-14T01:59:55.010Z,71.40
2018-09-14T02:02:22.391Z,72.10
2018-09-14T02:04:50.450Z,72.30
2018-09-14T02:07:17.851Z,71.70
2018-09-14T02:09:45.237Z,71.90
2018-09-14T02:12:12.784Z,72.20
2018-09-14T02:14:40.319Z,72.20
2018-09-14T02:17:07.862Z,71.90
2018-09-14T02:19:35.379Z,71.90
2018-09-14T02:22:02.944Z,71.80
2018-09-14T02:24:30.478Z,71.20
2018-09-14T02:26:58.090Z,71.00
2018-09-14T02:29:25.663Z,71.40
2018-09-14T02:31:53.239Z,71.20
2018-09-14T02:34:20.789Z,71.80
2018-09-14T02:36:48.340Z,71.10
2018-09-14T02:39:15.879Z,71.20
2018-09-14T02:41:43.436Z,71.20
2018-09-14T02:44:10.981Z,71.70
2018-09-14T02:46:38.540Z,71.40
2018-09-14T02:49:06.090Z,71.60
2018-09-14T02:51:33.644Z,71.70
2018-09-14T02:54:01.255Z,71.60
2018-09-14T02:56:28.804Z,71.60
2018-09-14T02:58:56.332Z,71.80
2018-09-14T03:01:23.913Z,72.10
2018-09-14T03:03:51.482Z,71.40
2018-09-14T03:06:19.100Z,71.70
2018-09-14T03:08:46.632Z,71.40
2018-09-14T03:11:14.199Z,71.80
2018-09-14T03:13:42.073Z,71.80
2018-09-14T03:16:09.692Z,71.90
2018-09-14T03:18:37.232Z,72.70
2018-09-14T03:21:04.744Z,72.20
2018-09-14T03:23:32.254Z,72.50
2018-09-14T03:25:59.806Z,72.10
2018-09-14T03:28:27.350Z,73.30
2018-09-14T03:30:54.912Z,72.90
2018-09-14T03:33:22.467Z,72.50
2018-09-14T03:35:50.569Z,72.60
2018-09-14T03:38:18.156Z,72.80
2018-09-14T03:40:45.692Z,71.70
2018-09-14T03:43:13.273Z,72.70
2018-09-14T03:45:40.827Z,72.50
2018-09-14T03:48:08.385Z,72.20
2018-09-14T03:50:35.976Z,72.30
2018-09-14T03:53:03.521Z,72.70
2018-09-14T03:55:31.040Z,72.50
2018-09-14T03:57:58.560Z,72.90
2018-09-14T04:00:26.111Z,72.70
2018-09-14T04:02:53.676Z,73.00
2018-09-14T04:05:21.227Z,72.30
2018-09-14T04:07:48.848Z,73.20
2018-09-14T04:10:16.332Z,72.50
2018-09-14T04:12:43.877Z,72.20
2018-09-14T04:15:11.408Z,72.10
2018-09-14T04:17:38.963Z,72.20
2018-09-14T04:20:06.580Z,72.60
2018-09-14T04:22:34.127Z,72.20
2018-09-14T04:25:01.661Z,72.30
2018-09-14T04:27:29.243Z,72.20
2018-09-14T04:29:56.771Z,72.20
2018-09-14T04:32:24.292Z,72.20
2018-09-14T04:34:51.800Z,72.20
2018-09-14T04:37:19.327Z,72.20
2018-09-14T04:39:46.873Z,72.10
2018-09-14T04:42:14.408Z,71.90
2018-09-14T04:44:41.970Z,72.30
2018-09-14T04:47:09.507Z,72.50
2018-09-14T04:49:37.061Z,72.90
2018-09-14T04:52:04.587Z,72.60
2018-09-14T04:54:32.161Z,72.60
2018-09-14T04:56:59.703Z,72.90
2018-09-14T04:59:27.324Z,72.70
2018-09-14T05:01:55.002Z,73.30
2018-09-14T05:04:22.592Z,72.50
2018-09-14T05:06:50.151Z,73.40
2018-09-14T05:09:17.723Z,72.60
2018-09-14T05:11:45.325Z,72.60
2018-09-14T05:14:13.909Z,73.30
2018-09-14T05:16:41.467Z,72.90
2018-09-14T05:19:09.090Z,73.10
2018-09-14T05:21:36.663Z,73.00
2018-09-14T05:24:04.300Z,72.50
2018-09-14T05:26:31.811Z,73.10
2018-09-14T05:28:59.372Z,73.10
2018-09-14T05:31:26.959Z,73.30
2018-09-14T05:33:54.632Z,73.10
2018-09-14T05:36:22.172Z,73.40
2018-09-14T05:38:49.870Z,73.00
2018-09-14T05:41:17.491Z,73.40
2018-09-14T05:43:45.243Z,73.30
2018-09-14T05:46:12.775Z,72.90
2018-09-14T05:48:40.303Z,73.80
2018-09-14T05:51:07.888Z,73.40
2018-09-14T05:53:35.481Z,73.30
2018-09-14T05:56:03.023Z,72.90
2018-09-14T05:58:30.614Z,73.70
2018-09-14T06:00:58.179Z,72.90
2018-09-14T06:03:25.781Z,72.70
2018-09-14T06:05:53.360Z,73.20
2018-09-14T06:08:20.905Z,73.10
2018-09-14T06:10:48.448Z,73.80
2018-09-14T06:13:15.983Z,73.10
2018-09-14T06:15:43.524Z,73.10
2018-09-14T06:18:11.084Z,72.90
2018-09-14T06:20:38.681Z,72.70
2018-09-14T06:23:06.376Z,73.20
2018-09-14T06:25:33.976Z,73.70
2018-09-14T06:28:01.513Z,73.10
2018-09-14T06:30:29.346Z,73.30
2018-09-14T06:32:57.272Z,73.40
2018-09-14T06:35:24.890Z,72.60
2018-09-14T06:37:52.423Z,73.80
2018-09-14T06:40:19.980Z,74.10
2018-09-14T06:42:47.604Z,73.50
2018-09-14T06:45:15.234Z,73.40
2018-09-14T06:47:42.776Z,73.30
2018-09-14T06:50:10.336Z,73.30
2018-09-14T06:52:37.881Z,74.20
2018-09-14T06:55:05.423Z,73.00
2018-09-14T06:57:33.004Z,73.40
2018-09-14T07:00:00.625Z,73.90
2018-09-14T07:02:28.131Z,73.20
2018-09-14T07:04:55.835Z,73.50
2018-09-14T07:07:23.427Z,72.90
2018-09-14T07:09:51.072Z,72.90
2018-09-14T07:12:18.662Z,73.10
2018-09-14T07:14:46.231Z,72.80
2018-09-14T07:17:13.759Z,72.40
2018-09-14T07:19:41.315Z,72.50
2018-09-14T07:22:09.534Z,72.90
2018-09-14T07:24:37.317Z,72.90
2018-09-14T07:27:04.743Z,72.70
2018-09-14T07:29:32.296Z,72.80
2018-09-14T07:32:00.364Z,72.40
2018-09-14T07:34:27.899Z,72.20
2018-09-14T07:36:55.495Z,72.40
2018-09-14T07:39:23.050Z,72.10
2018-09-14T07:41:50.794Z,72.00
2018-09-14T07:44:18.434Z,72.00
2018-09-14T07:46:45.980Z,71.90
2018-09-14T07:49:13.541Z,72.00
2018-09-14T07:51:41.314Z,72.00
2018-09-14T07:54:08.908Z,72.00
2018-09-14T07:56:36.582Z,72.00
2018-09-14T07:59:04.113Z,72.00
2018-09-14T08:01:31.672Z,71.90
2018-09-14T08:03:59.205Z,71.70
2018-09-14T08:06:26.734Z,72.10
2018-09-14T08:08:54.297Z,71.90
2018-09-14T08:11:22.000Z,72.20
2018-09-14T08:13:49.811Z,71.80
2018-09-14T08:16:17.332Z,71.80
2018-09-14T08:18:44.851Z,72.10
2018-09-14T08:21:12.381Z,72.10
2018-09-14T08:23:39.935Z,72.20
2018-09-14T08:26:08.707Z,72.10
2018-09-14T08:28:36.401Z,71.90
2018-09-14T08:31:03.945Z,71.70
2018-09-14T08:33:31.493Z,72.20
2018-09-14T08:35:59.956Z,72.50
2018-09-14T08:38:27.512Z,72.20
2018-09-14T08:40:55.121Z,72.40
2018-09-14T08:43:22.688Z,72.20
2018-09-14T08:45:50.239Z,72.10
2018-09-14T08:48:17.813Z,72.80
2018-09-14T08:50:45.376Z,72.00
2018-09-14T08:53:12.927Z,72.20
2018-09-14T08:55:40.459Z,72.30
2018-09-14T08:58:08.049Z,71.70
2018-09-14T09:00:35.649Z,72.40
2018-09-14T09:03:03.144Z,72.30
2018-09-14T09:05:30.732Z,71.70
2018-09-14T09:07:58.349Z,71.60
2018-09-14T09:10:25.896Z,71.40
2018-09-14T09:12:53.482Z,71.70
2018-09-14T09:15:21.095Z,72.30
2018-09-14T09:17:48.835Z,71.10
2018-09-14T09:20:16.399Z,70.90
2018-09-14T09:22:43.947Z,70.30
2018-09-14T09:25:11.568Z,70.10
2018-09-14T09:27:39.121Z,70.30
2018-09-14T09:30:06.678Z,70.60
2018-09-14T09:32:34.203Z,70.60
2018-09-14T09:35:01.772Z,70.20
2018-09-14T09:37:29.332Z,69.70
2018-09-14T09:39:56.893Z,69.50
2018-09-14T09:42:24.480Z,69.70
2018-09-14T09:44:52.343Z,68.90
2018-09-14T09:47:19.944Z,68.70
2018-09-14T09:49:47.561Z,68.90
2018-09-14T09:52:15.137Z,68.00
2018-09-14T09:54:42.948Z,67.20
2018-09-14T09:57:10.608Z,67.40
2018-09-14T09:59:38.168Z,67.20
2018-09-14T10:02:11.745Z,67.00
2018-09-14T10:04:45.157Z,67.80
2018-09-14T10:07:13.052Z,67.60
2018-09-14T10:09:40.719Z,67.20
2018-09-14T10:12:08.436Z,65.90
2018-09-14T10:14:36.073Z,65.80
2018-09-14T10:17:03.698Z,65.10
2018-09-14T10:19:31.317Z,64.70
2018-09-14T10:21:58.946Z,63.40
2018-09-14T10:24:26.740Z,61.30
2018-09-14T10:26:54.769Z,59.10
2018-09-14T10:29:22.421Z,59.40
2018-09-14T10:31:50.053Z,61.00
2018-09-14T10:34:17.643Z,60.60
2018-09-14T10:36:45.571Z,60.50
2018-09-14T10:39:13.215Z,61.40
2018-09-14T10:41:40.891Z,57.20
2018-09-14T10:44:08.619Z,54.30
2018-09-14T10:46:36.516Z,56.10
2018-09-14T10:49:04.393Z,55.50
2018-09-14T10:51:32.008Z,58.70
2018-09-14T10:53:59.698Z,58.70
2018-09-14T10:56:27.358Z,55.80
2018-09-14T10:58:55.207Z,55.50
2018-09-14T11:01:22.823Z,57.90
2018-09-14T11:03:50.539Z,56.50
2018-09-14T11:06:18.252Z,56.00
2018-09-14T11:08:45.837Z,56.80
2018-09-14T11:11:13.502Z,56.70
2018-09-14T11:13:41.135Z,57.10
2018-09-14T11:16:08.861Z,56.90
2018-09-14T11:18:36.500Z,56.20
2018-09-14T11:21:04.122Z,58.30
2018-09-14T11:23:31.761Z,59.50
2018-09-14T11:25:59.407Z,57.50
2018-09-14T11:28:27.085Z,59.10
2018-09-14T11:30:54.679Z,58.20
2018-09-14T11:33:22.447Z,60.60
2018-09-14T11:35:50.063Z,58.70
2018-09-14T11:38:17.728Z,58.10
2018-09-14T11:40:45.345Z,58.00
2018-09-14T11:43:12.967Z,58.10
2018-09-14T11:45:41.105Z,58.60
2018-09-14T11:48:08.762Z,58.50
2018-09-14T11:50:36.415Z,59.30
2018-09-14T11:53:04.128Z,57.80
2018-09-14T11:55:31.810Z,56.20
2018-09-14T11:57:59.411Z,55.80
2018-09-14T12:00:27.068Z,56.00
2018-09-14T12:02:54.860Z,55.10
2018-09-14T12:05:22.553Z,57.30
2018-09-14T12:07:50.207Z,55.90
2018-09-14T12:10:17.945Z,54.20
2018-09-14T12:12:45.628Z,55.20
2018-09-14T12:15:13.500Z,56.60
2018-09-14T12:17:41.393Z,56.40
2018-09-14T12:20:09.154Z,57.20
2018-09-14T12:22:36.962Z,55.70
2018-09-14T12:25:04.565Z,56.30
2018-09-14T12:27:32.168Z,57.00
2018-09-14T12:30:00.025Z,55.30
2018-09-14T12:32:27.830Z,55.20
2018-09-14T12:34:55.419Z,55.30
2018-09-14T12:37:23.348Z,55.40
2018-09-14T12:39:51.006Z,56.30
2018-09-14T12:42:18.734Z,55.00
2018-09-14T12:44:46.327Z,56.10
2018-09-14T12:47:13.892Z,55.40
2018-09-14T12:49:41.593Z,55.80
2018-09-14T12:52:09.227Z,56.20
2018-09-14T12:54:37.043Z,57.50
2018-09-14T12:57:04.668Z,56.10
2018-09-14T12:59:32.464Z,57.00
2018-09-14T13:02:00.111Z,55.80
2018-09-14T13:04:27.901Z,57.90
2018-09-14T13:06:55.503Z,57.20
2018-09-14T13:09:23.072Z,57.20
2018-09-14T13:11:50.760Z,57.00
2018-09-14T13:14:21.018Z,56.80
2018-09-14T13:16:49.154Z,57.00
2018-09-14T13:19:16.704Z,56.60
2018-09-14T13:21:44.509Z,56.10
2018-09-14T13:24:12.285Z,57.00
2018-09-14T13:26:39.866Z,56.60
2018-09-14T13:29:07.747Z,56.80
2018-09-14T13:31:35.400Z,56.20
2018-09-14T13:34:03.021Z,56.90
2018-09-14T13:36:30.683Z,56.20
2018-09-14T13:38:58.644Z,56.40
2018-09-14T13:41:26.838Z,56.90
2018-09-14T13:43:54.503Z,56.30
2018-09-14T13:46:22.162Z,55.90
2018-09-14T13:48:49.784Z,55.90
2018-09-14T13:51:17.401Z,56.20
2018-09-14T13:53:44.998Z,56.40
2018-09-14T13:56:12.710Z,57.30
2018-09-14T13:58:40.478Z,56.70
2018-09-14T14:01:08.134Z,56.20
2018-09-14T14:03:35.836Z,56.70
2018-09-14T14:06:03.788Z,56.30
2018-09-14T14:08:31.413Z,55.60
2018-09-14T14:10:59.083Z,56.60
2018-09-14T14:13:26.940Z,57.00
2018-09-14T14:15:54.585Z,56.40
2018-09-14T14:18:22.319Z,54.40
2018-09-14T14:20:49.969Z,55.50
2018-09-14T14:23:17.640Z,56.00
2018-09-14T14:25:45.296Z,56.20
2018-09-14T14:28:12.855Z,55.60
2018-09-14T14:30:40.513Z,55.10
2018-09-14T14:33:08.318Z,52.00
2018-09-14T14:35:36.172Z,53.50
2018-09-14T14:38:03.814Z,53.30
2018-09-14T14:40:31.409Z,55.00
2018-09-14T14:42:59.060Z,54.80
2018-09-14T14:45:26.684Z,54.40
2018-09-14T14:47:54.446Z,54.90
2018-09-14T14:50:22.102Z,54.80
2018-09-14T14:52:49.700Z,55.00
2018-09-14T14:55:17.350Z,55.20
2018-09-14T14:57:45.056Z,55.50
2018-09-14T15:00:12.640Z,56.10
2018-09-14T15:02:40.235Z,56.20
2018-09-14T15:05:07.822Z,55.80
2018-09-14T15:07:35.425Z,55.80
2018-09-14T15:10:03.021Z,55.80
2018-09-14T15:12:30.968Z,56.10
2018-09-14T15:14:58.660Z,56.80
2018-09-14T15:17:26.268Z,56.60
2018-09-14T15:19:53.885Z,56.50
2018-09-14T15:22:21.599Z,56.30
2018-09-14T15:24:49.310Z,56.70
2018-09-14T15:27:16.998Z,56.70
2018-09-14T15:29:44.764Z,57.50
2018-09-14T15:32:12.369Z,57.70
2018-09-14T15:34:40.007Z,56.50
2018-09-14T15:37:07.830Z,56.80
2018-09-14T15:39:35.562Z,56.50
2018-09-14T15:42:03.169Z,56.40
2018-09-14T15:44:30.821Z,54.70
2018-09-14T15:46:58.409Z,55.00
2018-09-14T15:49:26.096Z,56.30
2018-09-14T15:51:53.732Z,56.80
2018-09-14T15:54:21.368Z,56.20
2018-09-14T15:56:49.097Z,55.30
2018-09-14T15:59:16.692Z,57.20
2018-09-14T16:01:44.265Z,56.70
2018-09-14T16:04:12.266Z,57.00
2018-09-14T16:06:39.886Z,55.90
2018-09-14T16:09:08.553Z,56.20
2018-09-14T16:11:36.057Z,57.00
2018-09-14T16:14:04.117Z,57.20
2018-09-14T16:16:32.184Z,56.90
2018-09-14T16:19:00.086Z,55.60
2018-09-14T16:21:27.647Z,56.20
2018-09-14T16:23:55.258Z,56.00
2018-09-14T16:26:22.919Z,56.50
2018-09-14T16:28:50.478Z,55.60
2018-09-14T16:31:18.044Z,56.20
2018-09-14T16:33:45.619Z,56.20
2018-09-14T16:36:13.149Z,56.50
2018-09-14T16:38:41.095Z,56.60
2018-09-14T16:41:08.646Z,56.40
2018-09-14T16:43:36.228Z,57.00
2018-09-14T16:46:03.796Z,57.50
2018-09-14T16:48:31.576Z,56.80
2018-09-14T16:50:59.178Z,56.30
2018-09-14T16:53:26.807Z,56.80
2018-09-14T16:55:54.528Z,56.10
2018-09-14T16:58:22.113Z,56.20
2018-09-14T17:00:49.792Z,56.40
2018-09-14T17:03:17.328Z,56.50
2018-09-14T17:05:45.089Z,56.90
2018-09-14T17:08:12.651Z,56.90
2018-09-14T17:10:40.328Z,57.20
2018-09-14T17:13:08.096Z,57.30
2018-09-14T17:15:36.102Z,57.50
2018-09-14T17:18:03.707Z,57.00
2018-09-14T17:20:31.275Z,56.00
2018-09-14T17:22:59.057Z,56.50
2018-09-14T17:25:26.592Z,57.50
2018-09-14T17:27:54.156Z,57.10
2018-09-14T17:30:21.697Z,57.10
2018-09-14T17:32:49.234Z,57.50
2018-09-14T17:35:16.792Z,57.40
2018-09-14T17:37:44.464Z,57.80
2018-09-14T17:40:11.994Z,57.90
2018-09-14T17:42:39.925Z,58.00
2018-09-14T17:45:07.586Z,57.90
2018-09-14T17:47:35.166Z,56.70
2018-09-14T17:50:03.403Z,57.50
2018-09-14T17:52:30.973Z,57.30
2018-09-14T17:54:58.556Z,58.10
2018-09-14T17:57:26.218Z,57.40
2018-09-14T17:59:53.751Z,58.10
2018-09-14T18:02:21.343Z,58.10
2018-09-14T18:04:48.941Z,57.50
2018-09-14T18:07:16.551Z,58.00
2018-09-14T18:09:44.132Z,57.90
2018-09-14T18:12:11.754Z,58.10
2018-09-14T18:14:39.301Z,58.10
2018-09-14T18:17:07.012Z,58.20
2018-09-14T18:19:34.596Z,58.00
2018-09-14T18:22:02.187Z,58.50
2018-09-14T18:24:29.941Z,58.50
2018-09-14T18:26:57.644Z,58.50
2018-09-14T18:29:25.279Z,58.60
2018-09-14T18:31:52.864Z,58.90
2018-09-14T18:34:20.563Z,59.10
2018-09-14T18:36:48.347Z,59.30
2018-09-14T18:39:15.923Z,59.40
2018-09-14T18:41:45.270Z,59.50
2018-09-14T18:44:12.900Z,59.70
2018-09-14T18:46:40.555Z,59.70
2018-09-14T18:49:08.518Z,59.80
2018-09-14T18:51:36.106Z,60.20
2018-09-14T18:54:03.904Z,60.10
2018-09-14T18:56:31.464Z,60.30
2018-09-14T18:58:59.134Z,60.20
2018-09-14T19:01:26.880Z,60.20
2018-09-14T19:03:54.513Z,60.40
2018-09-14T19:06:25.713Z,60.60
2018-09-14T19:08:53.329Z,61.30
2018-09-14T19:11:21.038Z,60.80
2018-09-14T19:13:48.725Z,60.80
2018-09-14T19:16:16.511Z,60.80
2018-09-14T19:18:44.088Z,61.20
